Terminal Aerodrome Forecast
Issued by NWS

Home | Current Version | Previous Version | Text Only | Print | Product List | Glossary On
Versions: 1 2 3 4 5 6 7 8 9 10 11 12 13 14
000
FTPA31 PHFO 300815 AAA
TAFHOG
TAF AMD
PHOG 300815Z 3008/0106 06012G18KT P6SM SCT050
     FM301000 08009KT P6SM SCT050
     FM302000 06017G25KT P6SM SCT030 SCT050
     FM010500 07013G20KT P6SM FEW030 SCT050=

USA.gov is the U.S. government's official web portal to all federal, state and local government web resources and services.